createdAt,value
2024-02-19T00:01:40.467Z,100111.13
2024-02-19T00:04:07.165Z,100109.56
2024-02-19T00:06:36.091Z,100120.25
2024-02-19T00:09:02.669Z,100116.41
2024-02-19T00:11:31.168Z,100120.66
2024-02-19T00:13:58.823Z,100130.25
2024-02-19T00:16:25.605Z,100142.69
2024-02-19T00:18:52.448Z,100145.13
2024-02-19T00:21:19.094Z,100143.69
2024-02-19T00:23:45.701Z,100142.56
2024-02-19T00:26:12.192Z,100152.19
2024-02-19T00:28:38.789Z,100160.16
2024-02-19T00:31:05.491Z,100166.69
2024-02-19T00:33:32.811Z,100152.94
2024-02-19T00:35:59.485Z,100161.00
2024-02-19T00:38:26.282Z,100162.75
2024-02-19T00:40:52.751Z,100175.44
2024-02-19T00:43:19.506Z,100184.97
2024-02-19T00:45:46.010Z,100189.94
2024-02-19T00:48:12.442Z,100191.91
2024-02-19T00:50:39.050Z,100177.16
2024-02-19T00:53:05.503Z,100179.63
2024-02-19T00:55:32.259Z,100180.88
2024-02-19T00:57:58.763Z,100200.22
2024-02-19T01:00:27.565Z,100192.53
2024-02-19T01:02:54.753Z,100195.16
2024-02-19T01:05:21.364Z,100200.03
2024-02-19T01:07:47.800Z,100208.44
2024-02-19T01:10:14.625Z,100219.28
2024-02-19T01:12:41.203Z,100218.00
2024-02-19T01:15:08.390Z,100223.97
2024-02-19T01:17:35.208Z,100219.41
2024-02-19T01:20:02.070Z,100222.63
2024-02-19T01:22:29.193Z,100219.66
2024-02-19T01:24:56.500Z,100221.13
2024-02-19T01:27:23.535Z,100222.94
2024-02-19T01:29:50.273Z,100218.81
2024-02-19T01:32:16.746Z,100221.63
2024-02-19T01:34:43.644Z,100221.56
2024-02-19T01:37:10.416Z,100235.25
2024-02-19T01:39:37.092Z,100236.88
2024-02-19T01:42:04.711Z,100240.47
2024-02-19T01:44:31.198Z,100232.91
2024-02-19T01:46:59.224Z,100235.56
2024-02-19T01:49:26.336Z,100236.59
2024-02-19T01:51:53.662Z,100240.91
2024-02-19T01:54:20.480Z,100236.50
2024-02-19T01:56:47.517Z,100240.72
2024-02-19T01:59:16.921Z,100247.25
2024-02-19T02:01:44.223Z,100245.31
2024-02-19T02:04:12.734Z,100249.41
2024-02-19T02:06:39.546Z,100245.97
2024-02-19T02:09:08.412Z,100249.13
2024-02-19T02:11:35.236Z,100247.97
2024-02-19T02:14:01.945Z,100262.91
2024-02-19T02:16:31.459Z,100251.16
2024-02-19T02:18:58.467Z,100243.13
2024-02-19T02:21:25.204Z,100256.19
2024-02-19T02:23:51.937Z,100260.94
2024-02-19T02:26:18.536Z,100265.59
2024-02-19T02:28:44.997Z,100274.81
2024-02-19T02:31:11.756Z,100264.09
2024-02-19T02:33:38.478Z,100277.59
2024-02-19T02:36:06.884Z,100281.94
2024-02-19T02:38:33.644Z,100293.81
2024-02-19T02:41:00.093Z,100285.88
2024-02-19T02:43:26.717Z,100288.56
2024-02-19T02:45:53.851Z,100301.44
2024-02-19T02:48:20.706Z,100305.06
2024-02-19T02:50:47.305Z,100306.13
2024-02-19T02:53:14.014Z,100316.34
2024-02-19T02:55:40.481Z,100329.94
2024-02-19T02:58:07.509Z,100326.31
2024-02-19T03:00:34.070Z,100339.69
2024-02-19T03:03:01.057Z,100326.28
2024-02-19T03:05:27.698Z,100342.16
2024-02-19T03:07:54.264Z,100354.81
2024-02-19T03:10:21.005Z,100361.41
2024-02-19T03:12:47.740Z,100358.97
2024-02-19T03:15:14.362Z,100357.34
2024-02-19T03:17:40.949Z,100369.56
2024-02-19T03:20:14.323Z,100376.84
2024-02-19T03:22:43.051Z,100370.59
2024-02-19T03:25:09.859Z,100381.78
2024-02-19T03:27:37.179Z,100382.25
2024-02-19T03:30:04.025Z,100382.25
2024-02-19T03:32:30.498Z,100387.41
2024-02-19T03:34:57.216Z,100392.06
2024-02-19T03:37:23.906Z,100391.31
2024-02-19T03:39:50.699Z,100398.31
2024-02-19T03:42:17.185Z,100388.22
2024-02-19T03:44:43.835Z,100393.91
2024-02-19T03:47:10.281Z,100415.13
2024-02-19T03:49:37.100Z,100416.34
2024-02-19T03:52:03.706Z,100423.00
2024-02-19T03:54:30.423Z,100435.38
2024-02-19T03:56:57.200Z,100420.53
2024-02-19T03:59:24.069Z,100428.72
2024-02-19T04:01:50.777Z,100438.56
2024-02-19T04:04:18.452Z,100442.25
2024-02-19T04:06:45.413Z,100457.28
2024-02-19T04:09:11.968Z,100453.06
2024-02-19T04:11:39.363Z,100469.81
2024-02-19T04:14:05.862Z,100475.25
2024-02-19T04:16:32.914Z,100478.44
2024-02-19T04:18:59.726Z,100486.47
2024-02-19T04:21:26.414Z,100483.75
2024-02-19T04:23:52.896Z,100495.66
2024-02-19T04:26:19.503Z,100507.03
2024-02-19T04:28:45.978Z,100507.91
2024-02-19T04:31:12.631Z,100514.31
2024-02-19T04:33:39.232Z,100511.78
2024-02-19T04:36:08.175Z,100511.59
2024-02-19T04:38:34.867Z,100521.34
2024-02-19T04:41:01.334Z,100516.63
2024-02-19T04:43:27.938Z,100537.47
2024-02-19T04:45:54.465Z,100527.06
2024-02-19T04:48:21.055Z,100533.19
2024-02-19T04:50:48.336Z,100541.97
2024-02-19T04:53:19.404Z,100530.69
2024-02-19T04:55:48.872Z,100536.28
2024-02-19T04:58:17.750Z,100536.66
2024-02-19T05:00:44.572Z,100551.06
2024-02-19T05:03:12.481Z,100558.34
2024-02-19T05:05:39.979Z,100551.16
2024-02-19T05:08:06.866Z,100569.13
2024-02-19T05:10:33.454Z,100558.66
2024-02-19T05:12:59.935Z,100556.91
2024-02-19T05:15:26.576Z,100554.94
2024-02-19T05:17:53.418Z,100560.50
2024-02-19T05:20:20.323Z,100561.22
2024-02-19T05:22:49.905Z,100550.44
2024-02-19T05:25:16.813Z,100560.03
2024-02-19T05:27:43.370Z,100565.47
2024-02-19T05:30:11.273Z,100578.84
2024-02-19T05:32:38.319Z,100575.94
2024-02-19T05:35:05.504Z,100567.16
2024-02-19T05:37:32.068Z,100575.94
2024-02-19T05:39:58.780Z,100582.25
2024-02-19T05:42:25.258Z,100583.31
2024-02-19T05:44:51.844Z,100585.13
2024-02-19T05:47:18.314Z,100596.16
2024-02-19T05:49:46.349Z,100587.44
2024-02-19T05:52:13.395Z,100599.91
2024-02-19T05:54:40.115Z,100600.47
2024-02-19T05:57:08.024Z,100602.78
2024-02-19T05:59:35.092Z,100611.69
2024-02-19T06:02:01.876Z,100611.59
2024-02-19T06:04:29.954Z,100628.28
2024-02-19T06:06:56.781Z,100612.00
2024-02-19T06:09:23.458Z,100629.53
2024-02-19T06:11:49.985Z,100627.72
2024-02-19T06:14:16.585Z,100626.28
2024-02-19T06:16:43.100Z,100637.22
2024-02-19T06:19:10.308Z,100637.97
2024-02-19T06:21:37.482Z,100639.84
2024-02-19T06:24:04.212Z,100642.06
2024-02-19T06:26:30.884Z,100640.88
2024-02-19T06:28:57.582Z,100642.59
2024-02-19T06:31:28.972Z,100644.00
2024-02-19T06:33:56.702Z,100662.06
2024-02-19T06:36:23.872Z,100666.59
2024-02-19T06:38:51.366Z,100664.53
2024-02-19T06:41:18.268Z,100669.25
2024-02-19T06:43:44.814Z,100672.53
2024-02-19T06:46:13.200Z,100661.75
2024-02-19T06:48:42.918Z,100666.97
2024-02-19T06:51:09.755Z,100676.53
2024-02-19T06:53:36.293Z,100669.66
2024-02-19T06:56:02.895Z,100676.47
2024-02-19T06:58:29.523Z,100680.78
2024-02-19T07:00:56.449Z,100682.31
2024-02-19T07:03:22.955Z,100687.78
2024-02-19T07:05:49.620Z,100687.69
2024-02-19T07:08:16.192Z,100699.56
2024-02-19T07:10:42.878Z,100700.75
2024-02-19T07:13:09.623Z,100695.47
2024-02-19T07:15:36.312Z,100704.59
2024-02-19T07:18:03.122Z,100699.78
2024-02-19T07:20:29.799Z,100704.31
2024-02-19T07:22:56.584Z,100712.25
2024-02-19T07:25:23.325Z,100703.63
2024-02-19T07:27:49.967Z,100718.50
2024-02-19T07:30:17.221Z,100711.16
2024-02-19T07:32:44.136Z,100723.75
2024-02-19T07:35:11.059Z,100725.66
2024-02-19T07:37:37.777Z,100724.97
2024-02-19T07:40:05.813Z,100733.69
2024-02-19T07:42:32.516Z,100734.53
2024-02-19T07:44:58.957Z,100732.72
2024-02-19T07:47:25.591Z,100739.38
2024-02-19T07:49:52.224Z,100737.28
2024-02-19T07:52:19.046Z,100733.91
2024-02-19T07:54:45.716Z,100744.03
2024-02-19T07:57:12.371Z,100745.66
2024-02-19T07:59:39.449Z,100754.09
2024-02-19T08:02:07.790Z,100749.63
2024-02-19T08:04:34.628Z,100747.50
2024-02-19T08:07:02.144Z,100746.56
2024-02-19T08:09:28.947Z,100749.59
2024-02-19T08:11:58.807Z,100756.72
2024-02-19T08:14:26.082Z,100747.97
2024-02-19T08:16:52.742Z,100756.00
2024-02-19T08:19:19.586Z,100752.22
2024-02-19T08:21:48.803Z,100758.75
2024-02-19T08:24:15.946Z,100763.91
2024-02-19T08:26:42.709Z,100774.53
2024-02-19T08:29:09.182Z,100766.16
2024-02-19T08:31:35.791Z,100768.72
2024-02-19T08:34:02.514Z,100774.03
2024-02-19T08:36:29.258Z,100770.16
2024-02-19T08:38:56.611Z,100771.16
2024-02-19T08:41:23.566Z,100770.16
2024-02-19T08:43:50.052Z,100775.34
2024-02-19T08:46:17.140Z,100776.09
2024-02-19T08:48:44.772Z,100777.28
2024-02-19T08:51:11.376Z,100781.38
2024-02-19T08:53:38.078Z,100776.91
2024-02-19T08:56:04.890Z,100776.03
2024-02-19T08:58:32.546Z,100785.00
2024-02-19T09:01:00.677Z,100783.09
2024-02-19T09:03:27.763Z,100772.00
2024-02-19T09:05:54.498Z,100784.41
2024-02-19T09:08:21.189Z,100784.91
2024-02-19T09:10:47.752Z,100773.84
2024-02-19T09:13:14.496Z,100772.47
2024-02-19T09:15:41.165Z,100769.91
2024-02-19T09:18:07.758Z,100767.63
2024-02-19T09:20:34.790Z,100767.56
2024-02-19T09:23:01.731Z,100775.75
2024-02-19T09:25:28.523Z,100772.03
2024-02-19T09:27:55.470Z,100766.00
2024-02-19T09:30:22.099Z,100771.97
2024-02-19T09:32:48.761Z,100773.00
2024-02-19T09:35:17.311Z,100772.75
2024-02-19T09:37:44.519Z,100769.50
2024-02-19T09:40:14.964Z,100772.56
2024-02-19T09:42:41.670Z,100777.63
2024-02-19T09:45:10.305Z,100781.50
2024-02-19T09:47:39.898Z,100771.25
2024-02-19T09:50:10.613Z,100778.06
2024-02-19T09:52:37.536Z,100774.38
2024-02-19T09:55:06.597Z,100778.28
2024-02-19T09:57:33.191Z,100783.88
2024-02-19T10:00:05.628Z,100784.34
2024-02-19T10:02:32.301Z,100790.66
2024-02-19T10:05:00.706Z,100784.47
2024-02-19T10:07:27.964Z,100781.41
2024-02-19T10:09:54.642Z,100775.34
2024-02-19T10:12:21.156Z,100768.09
2024-02-19T10:14:47.839Z,100759.03
2024-02-19T10:17:21.835Z,100757.41
2024-02-19T10:19:49.362Z,100765.53
2024-02-19T10:22:18.281Z,100765.47
2024-02-19T10:24:44.977Z,100762.44
2024-02-19T10:27:11.850Z,100758.19
2024-02-19T10:29:38.693Z,100762.50
2024-02-19T10:32:05.615Z,100761.16
2024-02-19T10:34:32.209Z,100753.88
2024-02-19T10:37:00.182Z,100750.75
2024-02-19T10:39:27.100Z,100750.94
2024-02-19T10:41:55.761Z,100759.56
2024-02-19T10:44:23.292Z,100762.69
2024-02-19T10:46:50.389Z,100762.75
2024-02-19T10:49:20.630Z,100765.53
2024-02-19T10:51:47.627Z,100766.19
2024-02-19T10:54:19.090Z,100773.16
2024-02-19T10:56:46.243Z,100766.00
2024-02-19T10:59:13.270Z,100759.81
2024-02-19T11:01:49.168Z,100763.28
2024-02-19T11:04:24.858Z,100763.28
2024-02-19T11:06:57.283Z,100759.50
2024-02-19T11:09:30.192Z,100757.72
2024-02-19T11:11:59.271Z,100746.16
2024-02-19T11:14:34.437Z,100756.94
2024-02-19T11:17:02.639Z,100744.13
2024-02-19T11:19:31.058Z,100747.22
2024-02-19T11:22:06.170Z,100744.19
2024-02-19T11:24:32.813Z,100741.59
2024-02-19T11:26:59.653Z,100738.56
2024-02-19T11:29:33.600Z,100744.63
2024-02-19T11:32:08.393Z,100741.13
2024-02-19T11:34:36.254Z,100743.41
2024-02-19T11:37:04.712Z,100746.97
2024-02-19T11:39:34.689Z,100748.84
2024-02-19T11:42:03.416Z,100745.44
2024-02-19T11:44:31.973Z,100741.66
2024-02-19T11:47:00.089Z,100739.69
2024-02-19T11:49:27.686Z,100736.56
2024-02-19T11:52:01.653Z,100736.91
2024-02-19T11:54:37.818Z,100725.03
2024-02-19T11:57:06.388Z,100726.78
2024-02-19T11:59:33.973Z,100726.81
2024-02-19T12:02:00.739Z,100723.34
2024-02-19T12:04:27.465Z,100718.13
2024-02-19T12:06:55.517Z,100718.13
2024-02-19T12:09:22.084Z,100717.50
2024-02-19T12:11:48.661Z,100716.06
2024-02-19T12:14:15.451Z,100706.53
2024-02-19T12:16:42.049Z,100705.06
2024-02-19T12:19:11.826Z,100705.31
2024-02-19T12:21:38.912Z,100708.50
2024-02-19T12:24:06.172Z,100696.91
2024-02-19T12:26:32.693Z,100698.84
2024-02-19T12:28:59.425Z,100705.97
2024-02-19T12:31:26.292Z,100698.88
2024-02-19T12:33:53.290Z,100697.47
2024-02-19T12:36:20.559Z,100686.38
2024-02-19T12:38:49.022Z,100695.94
2024-02-19T12:41:19.502Z,100692.25
2024-02-19T12:43:46.805Z,100686.22
2024-02-19T12:46:15.828Z,100686.22
2024-02-19T12:48:43.660Z,100687.69
2024-02-19T12:51:12.628Z,100686.44
2024-02-19T12:53:39.148Z,100678.34
2024-02-19T12:56:07.355Z,100675.97
2024-02-19T12:58:34.825Z,100670.41
2024-02-19T13:01:07.092Z,100662.91
2024-02-19T13:03:40.642Z,100670.81
2024-02-19T13:06:11.588Z,100664.03
2024-02-19T13:08:39.647Z,100665.38
2024-02-19T13:11:06.380Z,100663.13
2024-02-19T13:13:33.084Z,100652.59
2024-02-19T13:15:59.812Z,100668.72
2024-02-19T13:18:26.827Z,100658.47
2024-02-19T13:20:56.528Z,100658.16
2024-02-19T13:23:24.237Z,100662.63
2024-02-19T13:25:51.650Z,100658.31
2024-02-19T13:28:18.257Z,100659.44
2024-02-19T13:30:45.993Z,100663.19
2024-02-19T13:33:12.546Z,100659.00
2024-02-19T13:35:39.472Z,100658.59
2024-02-19T13:38:06.343Z,100670.31
2024-02-19T13:40:33.043Z,100667.34
2024-02-19T13:42:59.709Z,100661.78
2024-02-19T13:45:26.982Z,100665.63
2024-02-19T13:47:59.935Z,100661.78
2024-02-19T13:50:27.018Z,100659.25
2024-02-19T13:52:54.182Z,100658.53
2024-02-19T13:55:21.137Z,100662.06
2024-02-19T13:57:48.157Z,100660.31
2024-02-19T14:00:16.505Z,100657.75
2024-02-19T14:02:43.270Z,100646.78
2024-02-19T14:05:09.806Z,100651.56
2024-02-19T14:07:36.382Z,100652.25
2024-02-19T14:10:03.238Z,100653.53
2024-02-19T14:12:29.937Z,100657.78
2024-02-19T14:14:56.529Z,100652.66
2024-02-19T14:17:23.035Z,100657.03
2024-02-19T14:19:49.725Z,100646.56
2024-02-19T14:22:16.792Z,100646.59
2024-02-19T14:24:45.875Z,100648.75
2024-02-19T14:27:12.407Z,100638.81
2024-02-19T14:29:39.252Z,100645.78
2024-02-19T14:32:06.949Z,100635.56
2024-02-19T14:34:34.063Z,100642.31
2024-02-19T14:37:01.106Z,100642.06
2024-02-19T14:39:28.229Z,100637.44
2024-02-19T14:41:54.854Z,100644.06
2024-02-19T14:44:21.879Z,100645.06
2024-02-19T14:46:54.623Z,100639.88
2024-02-19T14:49:28.762Z,100640.88
2024-02-19T14:51:55.584Z,100642.59
2024-02-19T14:54:22.209Z,100641.75
2024-02-19T14:56:48.650Z,100640.50
2024-02-19T14:59:15.266Z,100636.25
2024-02-19T15:01:41.804Z,100644.34
2024-02-19T15:04:12.213Z,100650.72
2024-02-19T15:06:38.894Z,100641.56
2024-02-19T15:09:10.441Z,100656.03
2024-02-19T15:11:37.191Z,100650.44
2024-02-19T15:14:09.994Z,100639.16
2024-02-19T15:16:36.628Z,100636.31
2024-02-19T15:19:04.020Z,100635.84
2024-02-19T15:21:36.597Z,100637.31
2024-02-19T15:24:04.879Z,100631.53
2024-02-19T15:26:31.570Z,100632.78
2024-02-19T15:28:58.403Z,100630.69
2024-02-19T15:31:25.335Z,100628.97
2024-02-19T15:33:51.905Z,100629.47
2024-02-19T15:36:19.107Z,100622.09
2024-02-19T15:38:48.855Z,100615.78
2024-02-19T15:41:15.630Z,100616.94
2024-02-19T15:43:44.210Z,100617.41
2024-02-19T15:46:11.005Z,100610.50
2024-02-19T15:48:37.522Z,100608.91
2024-02-19T15:51:04.245Z,100615.88
2024-02-19T15:53:30.820Z,100611.44
2024-02-19T15:55:59.545Z,100607.88
2024-02-19T15:58:26.449Z,100603.72
2024-02-19T16:00:53.612Z,100594.19
2024-02-19T16:03:21.353Z,100592.44
2024-02-19T16:05:47.859Z,100592.00
2024-02-19T16:08:34.935Z,100589.56
2024-02-19T16:11:05.054Z,100583.59
2024-02-19T16:13:32.722Z,100586.53
2024-02-19T16:15:59.972Z,100589.78
2024-02-19T16:18:27.049Z,100578.50
2024-02-19T16:20:53.761Z,100582.69
2024-02-19T16:23:20.304Z,100584.88
2024-02-19T16:25:47.082Z,100585.06
2024-02-19T16:28:13.771Z,100588.16
2024-02-19T16:30:40.261Z,100587.16
2024-02-19T16:33:06.919Z,100578.19
2024-02-19T16:35:33.619Z,100586.69
2024-02-19T16:38:00.390Z,100584.47
2024-02-19T16:40:27.048Z,100588.91
2024-02-19T16:42:54.105Z,100577.41
2024-02-19T16:45:20.910Z,100592.38
2024-02-19T16:47:47.388Z,100588.13
2024-02-19T16:50:14.168Z,100586.66
2024-02-19T16:52:40.853Z,100597.28
2024-02-19T16:55:07.904Z,100589.13
2024-02-19T16:57:35.482Z,100595.41
2024-02-19T17:00:04.077Z,100596.00
2024-02-19T17:02:30.893Z,100602.00
2024-02-19T17:04:57.717Z,100595.00
2024-02-19T17:07:27.432Z,100601.22
2024-02-19T17:09:54.659Z,100601.78
2024-02-19T17:12:21.248Z,100602.28
2024-02-19T17:14:48.365Z,100599.28
2024-02-19T17:17:15.772Z,100592.22
2024-02-19T17:19:42.321Z,100603.09
2024-02-19T17:22:09.040Z,100596.06
2024-02-19T17:24:39.361Z,100588.78
2024-02-19T17:27:06.892Z,100591.97
2024-02-19T17:29:33.594Z,100586.78
2024-02-19T17:32:00.156Z,100590.13
2024-02-19T17:34:27.879Z,100589.13
2024-02-19T17:36:54.461Z,100588.13
2024-02-19T17:39:24.861Z,100598.09
2024-02-19T17:41:51.501Z,100599.28
2024-02-19T17:44:18.517Z,100602.09
2024-02-19T17:46:45.618Z,100599.94
2024-02-19T17:49:14.223Z,100606.09
2024-02-19T17:51:41.298Z,100603.91
2024-02-19T17:54:10.688Z,100597.81
2024-02-19T17:56:41.404Z,100592.38
2024-02-19T17:59:12.948Z,100602.59
2024-02-19T18:01:39.695Z,100594.63
2024-02-19T18:04:06.344Z,100598.06
2024-02-19T18:06:33.631Z,100590.19
2024-02-19T18:09:01.369Z,100596.09
2024-02-19T18:11:28.070Z,100596.50
2024-02-19T18:13:55.281Z,100590.06
2024-02-19T18:16:22.287Z,100589.44
2024-02-19T18:18:49.533Z,100587.78
2024-02-19T18:21:21.030Z,100579.97
2024-02-19T18:23:53.197Z,100587.06
2024-02-19T18:26:21.245Z,100578.72
2024-02-19T18:28:48.075Z,100582.44
2024-02-19T18:31:15.390Z,100578.84
2024-02-19T18:33:42.058Z,100582.97
2024-02-19T18:36:08.742Z,100580.59
2024-02-19T18:38:38.547Z,100582.53
2024-02-19T18:41:05.690Z,100575.25
2024-02-19T18:43:32.363Z,100584.91
2024-02-19T18:46:01.850Z,100584.13
2024-02-19T18:48:29.924Z,100585.22
2024-02-19T18:50:56.956Z,100585.41
2024-02-19T18:53:23.606Z,100581.66
2024-02-19T18:56:01.855Z,100580.16
2024-02-19T18:58:30.120Z,100580.16
2024-02-19T19:00:58.419Z,100577.22
2024-02-19T19:03:28.094Z,100572.97
2024-02-19T19:06:04.001Z,100574.91
2024-02-19T19:08:30.927Z,100586.22
2024-02-19T19:10:57.796Z,100566.75
2024-02-19T19:13:24.880Z,100578.47
2024-02-19T19:15:51.743Z,100575.63
2024-02-19T19:18:18.448Z,100579.44
2024-02-19T19:20:45.031Z,100572.56
2024-02-19T19:23:11.976Z,100576.13
2024-02-19T19:25:39.407Z,100573.06
2024-02-19T19:28:06.231Z,100580.47
2024-02-19T19:30:32.878Z,100576.63
2024-02-19T19:32:59.643Z,100571.88
2024-02-19T19:35:28.104Z,100569.63
2024-02-19T19:37:54.810Z,100568.16
2024-02-19T19:40:21.683Z,100562.59
2024-02-19T19:42:48.342Z,100565.13
2024-02-19T19:45:15.562Z,100563.59
2024-02-19T19:47:42.821Z,100567.38
2024-02-19T19:50:10.124Z,100570.25
2024-02-19T19:52:38.188Z,100571.34
2024-02-19T19:55:05.519Z,100566.44
2024-02-19T19:57:32.623Z,100560.91
2024-02-19T20:00:00.952Z,100567.59
2024-02-19T20:02:27.943Z,100578.19
2024-02-19T20:04:56.517Z,100575.53
2024-02-19T20:07:24.371Z,100566.56
2024-02-19T20:09:50.889Z,100558.75
2024-02-19T20:12:19.285Z,100556.47
2024-02-19T20:14:46.191Z,100556.47
2024-02-19T20:17:14.161Z,100564.22
2024-02-19T20:19:40.741Z,100564.94
2024-02-19T20:22:07.535Z,100564.47
2024-02-19T20:24:34.020Z,100568.88
2024-02-19T20:27:02.071Z,100566.25
2024-02-19T20:29:28.725Z,100564.94
2024-02-19T20:31:55.283Z,100571.13
2024-02-19T20:34:21.876Z,100574.19
2024-02-19T20:36:49.034Z,100578.50
2024-02-19T20:39:16.217Z,100580.84
2024-02-19T20:41:43.928Z,100580.94
2024-02-19T20:44:11.849Z,100571.31
2024-02-19T20:46:38.466Z,100580.03
2024-02-19T20:49:06.170Z,100579.13
2024-02-19T20:51:32.955Z,100583.84
2024-02-19T20:54:00.127Z,100579.47
2024-02-19T20:56:26.778Z,100588.72
2024-02-19T20:58:53.581Z,100590.31
2024-02-19T21:01:20.250Z,100592.38
2024-02-19T21:03:50.021Z,100582.94
2024-02-19T21:06:17.040Z,100589.94
2024-02-19T21:08:43.600Z,100587.56
2024-02-19T21:11:13.079Z,100586.06
2024-02-19T21:13:40.570Z,100593.88
2024-02-19T21:16:08.370Z,100588.72
2024-02-19T21:18:42.817Z,100585.25
2024-02-19T21:21:22.000Z,100588.84
2024-02-19T21:23:56.508Z,100583.91
2024-02-19T21:26:23.254Z,100589.81
2024-02-19T21:28:50.737Z,100590.78
2024-02-19T21:31:17.788Z,100595.50
2024-02-19T21:33:44.934Z,100588.09
2024-02-19T21:36:11.602Z,100584.75
2024-02-19T21:38:38.467Z,100588.84
2024-02-19T21:41:05.590Z,100585.25
2024-02-19T21:43:32.095Z,100590.19
2024-02-19T21:46:00.618Z,100584.53
2024-02-19T21:48:27.714Z,100583.94
2024-02-19T21:50:54.368Z,100580.84
2024-02-19T21:53:20.984Z,100586.13
2024-02-19T21:55:47.562Z,100581.50
2024-02-19T21:58:14.062Z,100570.81
2024-02-19T22:00:40.617Z,100574.38
2024-02-19T22:03:07.304Z,100575.34
2024-02-19T22:05:33.874Z,100576.41
2024-02-19T22:08:01.641Z,100571.50
2024-02-19T22:10:28.500Z,100573.34
2024-02-19T22:12:55.046Z,100572.19
2024-02-19T22:15:22.000Z,100573.47
2024-02-19T22:17:48.975Z,100577.47
2024-02-19T22:20:15.523Z,100577.28
2024-02-19T22:22:43.370Z,100577.56
2024-02-19T22:25:10.303Z,100578.13
2024-02-19T22:27:36.837Z,100583.16
2024-02-19T22:30:04.882Z,100581.00
2024-02-19T22:32:33.241Z,100587.75
2024-02-19T22:34:59.923Z,100584.28
2024-02-19T22:37:27.543Z,100581.78
2024-02-19T22:39:54.395Z,100586.19
2024-02-19T22:42:20.921Z,100583.38
2024-02-19T22:44:47.395Z,100577.88
2024-02-19T22:47:13.992Z,100589.03
2024-02-19T22:49:41.033Z,100585.59
2024-02-19T22:52:08.136Z,100586.13
2024-02-19T22:54:35.229Z,100577.16
2024-02-19T22:57:02.012Z,100582.56
2024-02-19T22:59:28.564Z,100592.91
2024-02-19T23:01:55.459Z,100587.88
2024-02-19T23:04:22.421Z,100587.97
2024-02-19T23:06:49.269Z,100587.78
2024-02-19T23:09:16.030Z,100593.53
2024-02-19T23:11:42.590Z,100596.91
2024-02-19T23:14:09.219Z,100598.94
2024-02-19T23:16:35.949Z,100596.91
2024-02-19T23:19:02.556Z,100597.56
2024-02-19T23:21:29.145Z,100603.44
2024-02-19T23:23:55.808Z,100604.31
2024-02-19T23:26:22.290Z,100612.53
2024-02-19T23:28:48.769Z,100605.41
2024-02-19T23:31:15.524Z,100602.94
2024-02-19T23:33:42.286Z,100602.94
2024-02-19T23:36:09.540Z,100601.25
2024-02-19T23:38:36.285Z,100600.41
2024-02-19T23:41:02.775Z,100599.84
2024-02-19T23:43:29.599Z,100594.53
2024-02-19T23:45:56.381Z,100601.78
2024-02-19T23:48:23.022Z,100600.00
2024-02-19T23:50:49.986Z,100600.94
2024-02-19T23:53:16.774Z,100594.91
2024-02-19T23:55:43.712Z,100600.25
2024-02-19T23:58:11.388Z,100611.03
